createdAt,value
2022-12-08T15:09:30.528Z,25.89
2022-12-08T15:12:12.748Z,24.38
2022-12-08T15:14:55.313Z,23.03
2022-12-08T15:17:47.841Z,22.60
2022-12-08T15:20:27.580Z,21.40
2022-12-08T15:23:04.523Z,21.45
2022-12-08T15:25:37.688Z,21.96
2022-12-08T15:28:13.051Z,20.92
2022-12-08T15:30:45.030Z,21.59
2022-12-08T15:33:16.710Z,20.95
2022-12-08T15:35:50.204Z,20.43
2022-12-08T15:38:23.892Z,20.48
2022-12-08T15:40:56.471Z,20.29
2022-12-08T15:43:28.465Z,20.47
2022-12-08T15:46:00.597Z,20.03
2022-12-08T15:48:32.549Z,20.40
2022-12-08T15:51:04.255Z,20.30
2022-12-08T15:53:35.768Z,20.61
2022-12-08T15:59:00.325Z,19.99
2022-12-08T16:01:31.867Z,21.22
2022-12-08T16:07:20.177Z,20.71
2022-12-08T16:09:46.940Z,20.63
2022-12-08T16:12:25.079Z,20.37
2022-12-08T16:17:48.411Z,21.39
2022-12-08T16:20:24.263Z,21.67
2022-12-08T16:23:19.433Z,22.75
2022-12-08T16:26:20.375Z,22.25
2022-12-08T16:28:53.808Z,23.80
2022-12-08T16:31:25.827Z,23.01
2022-12-08T16:33:57.521Z,22.84
2022-12-08T16:36:29.049Z,23.65
2022-12-08T16:39:00.572Z,23.58
2022-12-08T16:41:32.143Z,24.03
2022-12-08T16:44:06.116Z,24.05
2022-12-08T16:46:37.644Z,24.50
2022-12-08T16:49:09.774Z,24.24
2022-12-08T16:51:42.451Z,23.19
2022-12-08T16:54:13.978Z,25.54
2022-12-08T16:56:45.594Z,25.26
2022-12-08T16:59:17.116Z,25.01
2022-12-08T17:01:48.742Z,26.03
2022-12-08T17:04:31.346Z,27.91
2022-12-08T17:07:09.787Z,29.02
2022-12-08T17:09:41.325Z,28.81
2022-12-08T17:12:12.855Z,28.16
2022-12-08T17:14:44.462Z,28.97
2022-12-08T17:17:15.992Z,29.21
2022-12-08T17:19:47.532Z,30.82
2022-12-08T17:22:19.155Z,32.51
2022-12-08T17:24:50.695Z,28.74
2022-12-08T17:27:43.607Z,26.82
2022-12-08T17:30:15.349Z,27.55
2022-12-08T17:32:47.026Z,27.17
2022-12-08T17:35:18.671Z,26.09
2022-12-08T17:37:50.273Z,25.79
2022-12-08T17:40:22.885Z,26.35
2022-12-08T17:46:28.501Z,26.35
2022-12-08T17:49:00.057Z,25.78
2022-12-08T17:51:31.560Z,28.07
2022-12-08T17:54:04.938Z,29.10
2022-12-08T17:56:36.484Z,29.06
2022-12-08T17:59:08.014Z,28.27
2022-12-08T18:01:40.569Z,27.26
2022-12-08T18:04:13.155Z,26.85
2022-12-08T18:06:44.646Z,26.15
2022-12-08T18:09:16.500Z,25.48
2022-12-08T18:11:48.097Z,24.79
2022-12-08T18:14:19.762Z,25.65
2022-12-08T18:16:51.394Z,25.04
2022-12-08T18:19:23.092Z,25.85
2022-12-08T18:21:54.722Z,26.25
2022-12-08T18:24:26.313Z,27.40
2022-12-08T18:26:57.979Z,28.30
2022-12-08T18:29:29.634Z,26.72
2022-12-08T18:32:01.266Z,27.15
2022-12-08T18:34:32.861Z,25.88
2022-12-08T18:37:04.430Z,26.35
2022-12-08T18:39:36.417Z,27.19
2022-12-08T18:42:08.411Z,27.71
2022-12-08T18:44:40.403Z,28.12
2022-12-08T18:47:11.932Z,29.12
2022-12-08T18:49:44.103Z,28.60
2022-12-08T18:52:19.017Z,28.51
2022-12-08T18:55:06.324Z,28.90
2022-12-08T18:57:40.519Z,28.63
2022-12-08T19:00:17.732Z,28.51
2022-12-08T19:02:49.397Z,27.96
2022-12-08T19:05:21.187Z,27.04
2022-12-08T19:07:52.713Z,27.30
2022-12-08T19:10:24.941Z,28.13
2022-12-08T19:12:56.469Z,27.23
2022-12-08T19:15:28.102Z,28.98
2022-12-08T19:18:00.539Z,28.24
2022-12-08T19:20:32.051Z,27.83
2022-12-08T19:23:03.594Z,27.77
2022-12-08T19:25:35.111Z,27.28
2022-12-08T19:28:07.569Z,28.09
2022-12-08T19:30:39.195Z,28.96
2022-12-08T19:33:10.857Z,28.05
2022-12-08T19:35:46.209Z,29.28
2022-12-08T19:38:20.664Z,27.85
2022-12-08T19:40:52.234Z,27.93
2022-12-08T19:43:23.741Z,28.39
2022-12-08T19:45:55.586Z,30.18
2022-12-08T19:48:27.323Z,29.83
2022-12-08T19:50:59.099Z,29.60
2022-12-08T19:53:30.683Z,29.43
2022-12-08T19:56:02.567Z,29.09
2022-12-08T19:58:34.777Z,29.63
2022-12-08T20:01:07.282Z,28.89
2022-12-08T20:03:38.914Z,28.66
2022-12-08T20:06:18.178Z,29.95
2022-12-08T20:08:50.986Z,29.00
2022-12-08T20:11:22.938Z,30.18
2022-12-08T20:13:54.471Z,30.89
2022-12-08T20:16:26.148Z,30.22
2022-12-08T20:18:57.830Z,31.61
2022-12-08T20:21:30.035Z,31.23
2022-12-08T20:24:01.591Z,29.74
2022-12-08T20:26:33.328Z,29.65
2022-12-08T20:29:05.019Z,30.51
2022-12-08T20:31:36.613Z,29.41
2022-12-08T20:34:17.565Z,31.01
2022-12-08T20:36:49.284Z,30.27
2022-12-08T20:39:20.945Z,30.16
2022-12-08T20:41:52.926Z,30.94
2022-12-08T20:44:24.506Z,31.43
2022-12-08T20:46:57.176Z,31.92
2022-12-08T20:49:34.363Z,32.93
2022-12-08T20:52:06.713Z,31.12
2022-12-08T20:54:38.614Z,30.70
2022-12-08T20:57:10.815Z,31.66
2022-12-08T20:59:43.037Z,31.93
2022-12-08T21:02:17.504Z,32.46
2022-12-08T21:04:49.679Z,33.01
2022-12-08T21:07:21.372Z,33.37
2022-12-08T21:09:53.127Z,33.88
2022-12-08T21:12:24.800Z,33.95
2022-12-08T21:14:56.505Z,33.72
2022-12-08T21:17:28.218Z,33.87
2022-12-08T21:19:59.900Z,34.18
2022-12-08T21:22:31.526Z,34.41
2022-12-08T21:25:03.304Z,32.52
2022-12-08T21:27:37.228Z,33.75
2022-12-08T21:30:10.702Z,34.03
2022-12-08T21:32:42.991Z,33.90
2022-12-08T21:35:14.892Z,34.96
2022-12-08T21:37:46.829Z,34.15
2022-12-08T21:40:18.605Z,34.50
2022-12-08T21:42:51.128Z,34.05
2022-12-08T21:45:22.682Z,34.55
2022-12-08T21:47:54.526Z,34.95
2022-12-08T21:50:26.371Z,33.79
2022-12-08T21:52:58.036Z,33.27
2022-12-08T21:55:29.650Z,33.89
2022-12-08T21:58:04.042Z,34.60
2022-12-08T22:00:35.801Z,35.80
2022-12-08T22:03:13.695Z,35.57
2022-12-08T22:05:45.770Z,34.41
2022-12-08T22:08:17.361Z,33.78
2022-12-08T22:10:49.053Z,33.38
2022-12-08T22:13:20.579Z,33.96
2022-12-08T22:16:01.544Z,33.71
2022-12-08T22:18:34.761Z,33.85
2022-12-08T22:21:15.890Z,33.93
2022-12-08T22:23:47.510Z,34.29
2022-12-08T22:26:19.303Z,32.60
2022-12-08T22:28:50.846Z,33.63
2022-12-08T22:31:22.734Z,32.77
2022-12-08T22:33:54.567Z,33.34
2022-12-08T22:36:27.461Z,33.17
2022-12-08T22:38:59.001Z,33.68
2022-12-08T22:41:30.599Z,32.48
2022-12-08T22:44:06.085Z,32.45
2022-12-08T22:46:37.712Z,33.16
2022-12-08T22:49:09.458Z,32.65
2022-12-08T22:51:41.205Z,32.55
2022-12-08T22:54:12.860Z,32.76
2022-12-08T22:56:44.700Z,33.09
2022-12-08T22:59:16.338Z,33.27
2022-12-08T23:01:47.927Z,34.02
2022-12-08T23:04:19.593Z,32.42
2022-12-08T23:06:51.270Z,33.81
2022-12-08T23:09:23.037Z,34.16
2022-12-08T23:11:55.487Z,33.37
2022-12-08T23:14:27.294Z,33.96
2022-12-08T23:16:59.126Z,32.87
2022-12-08T23:19:30.748Z,33.09
2022-12-08T23:22:02.341Z,32.92
2022-12-08T23:24:33.962Z,33.70
2022-12-08T23:27:05.618Z,33.02
2022-12-08T23:29:37.538Z,32.83
2022-12-08T23:32:09.631Z,31.85
2022-12-08T23:34:41.342Z,32.63
2022-12-08T23:37:13.042Z,32.60
2022-12-08T23:39:44.677Z,32.74
2022-12-08T23:42:16.184Z,32.51
2022-12-08T23:44:47.733Z,31.54
2022-12-08T23:47:19.336Z,30.95
2022-12-08T23:49:51.122Z,33.15
2022-12-08T23:52:22.696Z,32.70
2022-12-08T23:54:54.604Z,33.59
2022-12-08T23:57:26.360Z,32.81
2022-12-08T23:59:58.040Z,31.30
